Time;durP1;ratioP1;P1;durP2;ratioP2;P2;SDS_P1;SDS_P2;PMS_P1;PMS_P2;Temp;Humidity;BMP_temperature;BMP_pressure;BME280_temperature;BME280_humidity;BME280_pressure;Samples;Min_cycle;Max_cycle;Signal;HPM_P1;HPM_P2
2024/01/24 00:02:06;;;;;;;0.88;0.60;;;11.10;99.90;;;;;;4977443;28;20034;-72
2024/01/24 00:04:32;;;;;;;1.05;0.47;;;11.10;99.90;;;;;;4979594;28;20062;-75
2024/01/24 00:06:58;;;;;;;2.05;0.40;;;11.10;99.90;;;;;;4959508;28;20042;-76
2024/01/24 00:09:23;;;;;;;3.97;0.55;;;11.10;99.90;;;;;;4979900;28;20038;-74
2024/01/24 00:11:49;;;;;;;2.10;0.40;;;11.10;99.90;;;;;;4978084;28;20026;-73
2024/01/24 00:14:15;;;;;;;1.40;0.40;;;11.10;99.90;;;;;;4983120;28;20042;-73
2024/01/24 00:16:41;;;;;;;5.43;0.93;;;11.10;99.90;;;;;;4975783;28;20049;-74
2024/01/24 00:19:07;;;;;;;4.68;1.50;;;11.10;99.90;;;;;;4963096;28;20125;-73
2024/01/24 00:21:32;;;;;;;7.25;0.88;;;11.10;99.90;;;;;;4979376;28;20092;-73
2024/01/24 00:23:59;;;;;;;4.63;1.25;;;11.10;99.90;;;;;;4977330;28;20049;-74
2024/01/24 00:26:24;;;;;;;7.28;1.25;;;11.10;99.90;;;;;;4975000;28;20453;-74
2024/01/24 00:28:50;;;;;;;2.95;0.98;;;11.10;99.90;;;;;;4983535;28;20041;-76
2024/01/24 00:31:16;;;;;;;2.95;0.88;;;11.10;99.90;;;;;;4978439;28;20088;-74
2024/01/24 00:33:42;;;;;;;6.82;1.60;;;11.10;99.90;;;;;;4977252;28;20041;-73
2024/01/24 00:36:08;;;;;;;4.05;1.40;;;11.20;99.90;;;;;;4977049;28;20061;-75
2024/01/24 00:38:33;;;;;;;5.25;0.93;;;11.20;99.90;;;;;;4975245;28;20069;-74
2024/01/24 00:40:59;;;;;;;4.65;0.70;;;11.20;99.90;;;;;;4979270;28;20485;-74
2024/01/24 00:43:25;;;;;;;11.10;0.65;;;11.20;99.90;;;;;;4974899;28;20073;-74
2024/01/24 00:45:51;;;;;;;7.35;0.90;;;11.20;99.90;;;;;;4979233;28;20118;-74
2024/01/24 00:48:17;;;;;;;4.57;1.00;;;11.20;99.90;;;;;;4987387;28;20265;-74
2024/01/24 00:50:43;;;;;;;2.67;1.02;;;11.20;99.90;;;;;;4987447;28;20499;-74
2024/01/24 00:53:17;;;;;;;3.70;0.90;;;11.30;99.90;;;;;;4983260;28;20046;-73
2024/01/24 00:55:44;;;;;;;3.53;0.65;;;11.30;99.90;;;;;;4984038;28;20173;-73
2024/01/24 00:58:10;;;;;;;3.10;0.82;;;11.30;99.90;;;;;;4983370;28;20061;-73
2024/01/24 01:00:36;;;;;;;5.53;0.73;;;11.30;99.90;;;;;;4978341;28;20526;-73
2024/01/24 01:03:02;;;;;;;6.10;1.52;;;11.40;99.90;;;;;;4978762;28;20035;-73
2024/01/24 01:05:28;;;;;;;0.85;0.55;;;11.40;99.90;;;;;;4978707;28;20042;-73
2024/01/24 01:07:53;;;;;;;2.83;0.93;;;11.40;99.90;;;;;;4978332;28;20053;-72
2024/01/24 01:10:19;;;;;;;1.85;0.52;;;11.40;99.90;;;;;;4976897;28;20053;-73
2024/01/24 01:12:45;;;;;;;4.60;0.85;;;11.50;99.90;;;;;;4979244;28;20058;-73
2024/01/24 01:15:11;;;;;;;7.15;0.40;;;11.50;99.90;;;;;;4974710;28;20110;-73
2024/01/24 01:17:37;;;;;;;3.88;0.52;;;11.60;99.90;;;;;;4982472;28;20518;-73
2024/01/24 01:20:04;;;;;;;1.65;0.40;;;11.60;99.90;;;;;;4982255;28;20053;-74
2024/01/24 01:22:30;;;;;;;0.98;0.30;;;11.50;99.90;;;;;;4996149;28;20402;-74
2024/01/24 01:24:56;;;;;;;0.65;0.38;;;11.50;99.90;;;;;;4964624;28;20050;-73
2024/01/24 01:27:22;;;;;;;3.40;0.55;;;11.60;99.90;;;;;;4984084;28;20119;-74
2024/01/24 01:29:48;;;;;;;2.95;0.65;;;11.60;99.90;;;;;;4964453;28;20634;-74
2024/01/24 01:32:14;;;;;;;5.75;0.85;;;11.60;99.90;;;;;;4962502;28;20045;-73
2024/01/24 01:34:40;;;;;;;1.27;0.47;;;11.60;99.90;;;;;;4978639;28;20081;-74
2024/01/24 01:37:06;;;;;;;1.10;0.50;;;11.60;99.90;;;;;;4963250;28;20030;-73
2024/01/24 01:39:33;;;;;;;0.50;0.30;;;11.60;99.90;;;;;;4975191;28;20117;-74
2024/01/24 01:41:58;;;;;;;1.00;0.30;;;11.60;99.90;;;;;;4975317;28;20034;-74
2024/01/24 01:44:24;;;;;;;7.40;1.08;;;11.50;99.90;;;;;;4975716;28;20069;-74
2024/01/24 01:46:53;;;;;;;0.90;0.40;;;11.50;99.90;;;;;;4985341;28;20113;-74
2024/01/24 01:49:19;;;;;;;1.77;0.35;;;11.50;99.90;;;;;;4975829;28;20046;-74
2024/01/24 01:51:45;;;;;;;3.03;0.73;;;11.50;99.90;;;;;;4965621;28;20053;-72
2024/01/24 01:54:14;;;;;;;0.38;0.28;;;11.50;99.90;;;;;;4974336;28;20047;-73
2024/01/24 01:56:41;;;;;;;3.43;0.50;;;11.50;99.90;;;;;;4979415;28;20050;-74
2024/01/24 01:59:07;;;;;;;1.80;0.85;;;11.50;99.90;;;;;;4974438;28;20077;-74
2024/01/24 02:01:33;;;;;;;2.95;0.63;;;11.50;99.90;;;;;;4978532;28;20065;-73
2024/01/24 02:03:59;;;;;;;6.88;0.93;;;11.40;99.90;;;;;;4974099;28;20070;-74
2024/01/24 02:06:25;;;;;;;6.70;0.77;;;11.40;99.90;;;;;;4978661;28;20061;-73
2024/01/24 02:08:51;;;;;;;2.03;0.77;;;11.40;99.90;;;;;;4984180;28;20497;-73
2024/01/24 02:11:17;;;;;;;3.85;0.75;;;11.40;99.90;;;;;;4978286;28;20089;-75
2024/01/24 02:13:43;;;;;;;8.07;0.65;;;11.30;99.90;;;;;;4977578;28;20053;-73
2024/01/24 02:16:13;;;;;;;2.83;0.60;;;11.30;99.90;;;;;;4974319;28;20049;-74
2024/01/24 02:18:41;;;;;;;;;;;11.30;99.90;;;;;;4977987;28;20057;-74
2024/01/24 02:21:07;;;;;;;3.60;0.40;;;11.20;99.90;;;;;;4958371;28;19924;-73
2024/01/24 02:23:33;;;;;;;6.03;0.80;;;11.20;99.90;;;;;;4978843;28;20061;-73
2024/01/24 02:25:59;;;;;;;1.85;0.57;;;11.30;99.90;;;;;;4975032;28;20042;-73
2024/01/24 02:28:25;;;;;;;10.38;1.27;;;11.30;99.90;;;;;;4985075;28;20121;-74
2024/01/24 02:30:51;;;;;;;4.90;0.88;;;11.30;99.90;;;;;;4997996;28;20037;-74
2024/01/24 02:33:16;;;;;;;3.75;0.55;;;11.30;99.90;;;;;;4979557;28;20113;-73
2024/01/24 02:35:42;;;;;;;5.95;1.08;;;11.30;99.90;;;;;;4981697;28;20463;-74
2024/01/24 02:38:08;;;;;;;10.23;1.00;;;11.30;99.90;;;;;;4981647;28;20521;-73
2024/01/24 02:40:34;;;;;;;3.45;0.50;;;11.30;99.90;;;;;;4978008;28;20038;-73
2024/01/24 02:43:00;;;;;;;4.13;0.60;;;11.20;99.90;;;;;;4969569;28;20689;-72
2024/01/24 02:45:25;;;;;;;6.13;0.80;;;11.10;99.90;;;;;;4977140;28;20042;-73
2024/01/24 02:47:51;;;;;;;4.50;1.33;;;11.00;99.90;;;;;;4986308;28;20096;-72
2024/01/24 02:50:17;;;;;;;10.45;1.27;;;11.00;99.90;;;;;;4969972;28;20045;-73
2024/01/24 02:52:43;;;;;;;5.57;1.63;;;10.90;99.90;;;;;;4979741;28;20407;-73
2024/01/24 02:55:16;;;;;;;4.68;1.00;;;10.90;99.90;;;;;;4994657;28;20070;-73
2024/01/24 02:57:43;;;;;;;5.75;1.05;;;10.80;99.90;;;;;;4981180;28;20073;-74
2024/01/24 03:00:12;;;;;;;8.23;1.60;;;10.80;99.90;;;;;;4981570;28;20048;-73
2024/01/24 03:02:39;;;;;;;4.60;1.58;;;10.80;99.90;;;;;;4984008;28;20054;-74
2024/01/24 03:05:06;;;;;;;10.55;1.63;;;10.70;99.90;;;;;;4977138;28;20046;-74
2024/01/24 03:07:32;;;;;;;10.65;1.67;;;10.70;99.90;;;;;;4981214;28;20042;-74
2024/01/24 03:09:57;;;;;;;5.97;1.17;;;10.70;99.90;;;;;;4976867;28;20110;-74
2024/01/24 03:12:23;;;;;;;6.40;0.77;;;10.70;99.90;;;;;;4981072;28;20422;-72
2024/01/24 03:14:49;;;;;;;8.10;2.05;;;10.70;99.90;;;;;;4964857;28;20046;-73
2024/01/24 03:17:15;;;;;;;4.40;1.17;;;10.70;99.90;;;;;;4976350;28;20046;-73
2024/01/24 03:19:41;;;;;;;7.25;1.45;;;10.70;99.90;;;;;;4992102;28;20050;-73
2024/01/24 03:22:07;;;;;;;8.80;2.40;;;10.60;99.90;;;;;;4984894;28;20042;-73
2024/01/24 03:24:32;;;;;;;6.75;1.92;;;10.70;99.90;;;;;;4980724;28;20046;-73
2024/01/24 03:26:58;;;;;;;2.55;1.13;;;10.70;99.90;;;;;;4988684;28;20113;-73
2024/01/24 03:29:24;;;;;;;4.82;1.10;;;10.60;99.90;;;;;;4968149;28;20053;-73
2024/01/24 03:31:50;;;;;;;7.07;1.63;;;10.60;99.90;;;;;;4982816;28;20030;-73
2024/01/24 03:34:15;;;;;;;12.57;1.38;;;10.50;99.90;;;;;;4980656;28;20053;-75
2024/01/24 03:36:41;;;;;;;15.13;2.00;;;10.50;99.90;;;;;;4960964;28;20034;-74
2024/01/24 03:39:10;;;;;;;6.68;1.27;;;10.60;99.90;;;;;;4976195;28;20058;-73
2024/01/24 03:41:37;;;;;;;7.57;2.13;;;10.60;99.90;;;;;;4979722;28;20049;-75
2024/01/24 03:44:03;;;;;;;10.68;2.33;;;10.60;99.90;;;;;;4984361;28;20046;-73
2024/01/24 03:46:29;;;;;;;9.55;1.25;;;10.60;99.90;;;;;;4979908;28;20052;-73
2024/01/24 03:48:55;;;;;;;5.03;1.10;;;10.60;99.90;;;;;;4988245;28;20569;-73
2024/01/24 03:51:21;;;;;;;9.00;1.35;;;10.70;99.90;;;;;;4980329;28;20367;-75
2024/01/24 03:53:46;;;;;;;11.43;1.30;;;10.70;99.90;;;;;;4975939;28;20038;-74
2024/01/24 03:56:12;;;;;;;6.18;1.73;;;10.70;99.90;;;;;;4984775;28;20073;-73
2024/01/24 03:58:38;;;;;;;2.90;1.05;;;10.80;99.90;;;;;;4978222;28;20506;-74
2024/01/24 04:01:05;;;;;;;8.25;2.40;;;10.70;99.90;;;;;;4979702;28;20525;-74
2024/01/24 04:03:30;;;;;;;6.57;1.25;;;10.70;99.90;;;;;;4964519;28;20089;-74
2024/01/24 04:05:56;;;;;;;7.40;1.83;;;10.70;99.90;;;;;;4984126;28;20446;-73
2024/01/24 04:08:22;;;;;;;9.45;2.05;;;10.70;99.90;;;;;;4984247;28;20084;-75
2024/01/24 04:10:48;;;;;;;3.67;1.00;;;10.70;99.90;;;;;;4975660;28;20097;-74
2024/01/24 04:13:14;;;;;;;3.42;0.77;;;10.70;99.90;;;;;;4975799;28;20046;-73
2024/01/24 04:15:41;;;;;;;4.68;1.38;;;10.70;99.90;;;;;;4999526;28;20034;-74
2024/01/24 04:18:06;;;;;;;2.88;0.98;;;10.70;99.90;;;;;;4962935;28;20054;-75
2024/01/24 04:20:32;;;;;;;6.03;1.17;;;10.70;99.90;;;;;;4963255;28;20502;-74
2024/01/24 04:22:59;;;;;;;8.60;1.08;;;10.70;99.90;;;;;;4960024;28;20050;-74
2024/01/24 04:25:24;;;;;;;13.13;2.85;;;10.70;99.90;;;;;;4975828;28;20046;-74
2024/01/24 04:27:51;;;;;;;12.25;1.90;;;10.70;99.90;;;;;;4969857;28;20100;-74
2024/01/24 04:30:17;;;;;;;9.77;2.25;;;10.60;99.90;;;;;;4978334;28;20041;-74
2024/01/24 04:32:42;;;;;;;17.08;2.50;;;10.60;99.90;;;;;;4981667;28;20049;-73
2024/01/24 04:35:08;;;;;;;7.85;1.25;;;10.60;99.90;;;;;;4982125;28;20045;-74
2024/01/24 04:37:34;;;;;;;13.35;1.60;;;10.60;99.90;;;;;;4978350;28;20125;-75
2024/01/24 04:40:00;;;;;;;7.15;2.15;;;10.60;99.90;;;;;;4976689;28;20066;-73
2024/01/24 04:42:25;;;;;;;7.13;1.77;;;10.60;99.90;;;;;;4975469;28;20034;-74
2024/01/24 04:44:51;;;;;;;14.75;1.15;;;10.60;99.90;;;;;;4974914;28;20467;-74
2024/01/24 04:47:17;;;;;;;11.07;2.35;;;10.70;99.90;;;;;;4977836;28;20046;-74
2024/01/24 04:49:43;;;;;;;9.93;1.55;;;10.60;99.90;;;;;;4958960;28;20745;-74
2024/01/24 04:52:08;;;;;;;16.27;2.35;;;10.70;99.90;;;;;;4962624;28;20038;-75
2024/01/24 04:54:35;;;;;;;11.80;1.83;;;10.70;99.90;;;;;;4974952;28;20078;-75
2024/01/24 04:57:04;;;;;;;6.30;1.92;;;10.60;99.90;;;;;;4975170;28;20438;-74
2024/01/24 04:59:30;;;;;;;8.40;2.63;;;10.60;99.90;;;;;;4975031;28;20372;-74
2024/01/24 05:01:56;;;;;;;5.72;1.75;;;10.50;99.90;;;;;;4979442;28;20109;-75
2024/01/24 05:04:21;;;;;;;7.93;1.27;;;10.50;99.90;;;;;;4986353;28;20042;-76
2024/01/24 05:06:47;;;;;;;6.35;2.08;;;10.40;99.90;;;;;;4979127;28;20422;-76
2024/01/24 05:09:14;;;;;;;5.57;2.00;;;10.40;99.90;;;;;;4977376;28;20058;-74
2024/01/24 05:11:49;;;;;;;5.18;1.38;;;10.20;99.90;;;;;;4980242;28;20080;-74
2024/01/24 05:14:15;;;;;;;6.95;1.60;;;10.10;99.90;;;;;;4977866;28;20671;-75
2024/01/24 05:16:44;;;;;;;10.95;2.40;;;10.10;99.90;;;;;;4983578;28;20050;-75
2024/01/24 05:19:10;;;;;;;16.37;2.57;;;10.00;99.90;;;;;;4993723;28;20054;-74
2024/01/24 05:21:41;;;;;;;8.68;1.83;;;10.10;99.90;;;;;;4966723;28;20046;-75
2024/01/24 05:24:08;;;;;;;16.15;2.17;;;10.00;99.90;;;;;;4977442;28;20494;-73
2024/01/24 05:26:35;;;;;;;14.82;2.25;;;10.00;99.90;;;;;;4976665;28;20118;-75
2024/01/24 05:29:01;;;;;;;17.38;2.75;;;10.00;99.90;;;;;;4983197;28;20080;-75
2024/01/24 05:31:28;;;;;;;11.85;2.17;;;10.00;99.90;;;;;;4978903;28;20371;-74
2024/01/24 05:33:55;;;;;;;8.45;2.78;;;10.10;99.90;;;;;;4982943;28;20046;-75
2024/01/24 05:36:21;;;;;;;10.70;3.15;;;10.10;99.90;;;;;;4979190;28;20109;-75
2024/01/24 05:38:47;;;;;;;14.48;1.88;;;10.10;99.90;;;;;;4982320;28;20034;-74
2024/01/24 05:41:13;;;;;;;8.73;3.08;;;10.20;99.90;;;;;;4974549;28;20102;-74
2024/01/24 05:43:39;;;;;;;16.60;2.50;;;10.20;99.90;;;;;;4974122;28;20048;-74
2024/01/24 05:46:05;;;;;;;16.77;3.15;;;10.20;99.90;;;;;;4975881;28;20376;-75
2024/01/24 05:48:31;;;;;;;14.20;2.67;;;10.10;99.90;;;;;;4984517;28;20046;-75
2024/01/24 05:50:56;;;;;;;21.45;3.33;;;10.10;99.90;;;;;;4978290;28;20078;-75
2024/01/24 05:53:23;;;;;;;15.48;2.50;;;10.10;99.90;;;;;;4978612;28;20070;-74
2024/01/24 05:55:48;;;;;;;14.20;2.58;;;10.00;99.90;;;;;;4974820;28;20490;-75
2024/01/24 05:58:14;;;;;;;15.00;2.47;;;10.00;99.90;;;;;;4978620;28;20100;-74
2024/01/24 06:00:40;;;;;;;15.43;2.90;;;9.90;99.90;;;;;;4974250;28;20046;-75
2024/01/24 06:03:07;;;;;;;7.93;1.65;;;10.00;99.90;;;;;;4977775;28;20042;-75
2024/01/24 06:05:33;;;;;;;20.90;2.63;;;10.00;99.90;;;;;;4985742;28;20452;-74
2024/01/24 06:07:59;;;;;;;12.88;2.30;;;10.00;99.90;;;;;;4986476;28;20073;-75
2024/01/24 06:10:25;;;;;;;17.90;3.10;;;10.00;99.90;;;;;;4978056;28;20103;-75
2024/01/24 06:12:50;;;;;;;20.70;3.88;;;10.10;99.90;;;;;;4968731;28;20077;-77
2024/01/24 06:15:18;;;;;;;13.98;2.58;;;10.10;99.90;;;;;;4978772;28;20047;-75
2024/01/24 06:17:44;;;;;;;8.77;1.83;;;10.10;99.90;;;;;;4986211;28;20058;-73
2024/01/24 06:20:11;;;;;;;15.05;2.30;;;10.10;99.90;;;;;;4986685;28;20034;-75
2024/01/24 06:22:37;;;;;;;9.38;2.60;;;10.20;99.90;;;;;;4978874;28;20034;-74
2024/01/24 06:25:07;;;;;;;15.35;2.83;;;10.20;99.90;;;;;;4997630;28;20042;-74
2024/01/24 06:27:36;;;;;;;11.68;3.63;;;10.10;99.90;;;;;;4983399;28;20053;-74
2024/01/24 06:30:02;;;;;;;15.48;2.00;;;10.20;99.90;;;;;;4965297;28;20188;-75
2024/01/24 06:32:28;;;;;;;13.15;2.45;;;10.20;99.90;;;;;;4985589;28;20058;-76
2024/01/24 06:34:54;;;;;;;13.70;3.83;;;10.20;99.90;;;;;;4993262;28;20038;-75
2024/01/24 06:37:20;;;;;;;17.45;3.10;;;10.20;99.90;;;;;;4977802;28;20046;-76
2024/01/24 06:39:46;;;;;;;14.88;2.15;;;10.20;99.90;;;;;;4979081;28;20426;-75
2024/01/24 06:42:12;;;;;;;16.20;3.17;;;10.10;99.90;;;;;;4963649;28;20054;-75
2024/01/24 06:44:38;;;;;;;15.98;2.47;;;10.10;99.90;;;;;;4972960;28;20393;-74
2024/01/24 06:47:10;;;;;;;11.18;3.05;;;10.10;99.90;;;;;;4983808;28;20097;-74
2024/01/24 06:49:36;;;;;;;16.80;2.22;;;10.10;99.90;;;;;;4978148;28;20126;-75
2024/01/24 06:52:01;;;;;;;9.82;2.30;;;10.10;99.90;;;;;;4977006;28;20129;-74
2024/01/24 06:54:27;;;;;;;13.20;2.67;;;10.10;99.90;;;;;;4984409;28;20066;-74
2024/01/24 06:56:53;;;;;;;9.25;2.85;;;10.10;99.90;;;;;;4984611;28;20071;-73
2024/01/24 06:59:20;;;;;;;16.60;2.53;;;10.10;99.90;;;;;;4980290;28;20061;-74
2024/01/24 07:01:45;;;;;;;9.18;2.22;;;10.10;99.90;;;;;;4978250;28;20037;-74
2024/01/24 07:04:11;;;;;;;15.23;3.88;;;10.00;99.90;;;;;;4976628;28;20042;-74
2024/01/24 07:06:37;;;;;;;20.50;3.53;;;10.00;99.90;;;;;;4978934;28;20043;-76
2024/01/24 07:09:03;;;;;;;15.75;2.42;;;10.00;99.90;;;;;;4988202;28;20046;-75
2024/01/24 07:11:28;;;;;;;16.38;3.30;;;9.90;99.90;;;;;;4981259;28;20111;-74
2024/01/24 07:13:54;;;;;;;14.93;2.40;;;9.90;99.90;;;;;;4980496;28;20386;-73
2024/01/24 07:16:20;;;;;;;11.82;3.63;;;9.90;99.90;;;;;;4983205;28;20038;-73
2024/01/24 07:18:46;;;;;;;8.55;2.15;;;9.90;99.90;;;;;;4980865;28;20050;-75
2024/01/24 07:21:14;;;;;;;9.98;3.08;;;9.90;99.90;;;;;;4980097;28;20048;-76
2024/01/24 07:23:40;;;;;;;13.35;2.40;;;9.90;99.90;;;;;;4982077;28;20485;-76
2024/01/24 07:26:05;;;;;;;10.00;2.03;;;9.90;99.90;;;;;;4990845;28;20069;-76
2024/01/24 07:28:32;;;;;;;11.52;2.55;;;9.80;99.90;;;;;;4996702;28;20065;-76
2024/01/24 07:30:57;;;;;;;16.17;2.22;;;9.80;99.90;;;;;;4981803;28;20046;-77
2024/01/24 07:33:23;;;;;;;14.90;2.92;;;9.80;99.90;;;;;;4992699;28;20042;-77
2024/01/24 07:35:49;;;;;;;16.20;2.85;;;9.70;99.90;;;;;;4988424;28;20038;-77
2024/01/24 07:38:15;;;;;;;15.10;4.22;;;9.70;99.90;;;;;;4979852;28;20499;-75
2024/01/24 07:40:40;;;;;;;19.20;3.80;;;9.70;99.90;;;;;;4989611;28;20038;-77
2024/01/24 07:43:06;;;;;;;10.50;2.97;;;9.70;99.90;;;;;;4988653;28;20049;-74
2024/01/24 07:45:32;;;;;;;14.20;2.17;;;9.70;99.90;;;;;;4988817;28;20117;-77
2024/01/24 07:47:58;;;;;;;21.98;1.77;;;9.70;99.90;;;;;;4980923;28;20405;-75
2024/01/24 07:50:23;;;;;;;14.30;2.08;;;9.70;99.90;;;;;;4979304;28;20116;-76
2024/01/24 07:52:49;;;;;;;6.43;1.70;;;9.80;99.90;;;;;;4992408;28;20053;-78
2024/01/24 07:55:15;;;;;;;16.30;2.08;;;9.80;99.90;;;;;;4978716;28;20493;-76
2024/01/24 07:57:41;;;;;;;21.65;2.95;;;9.80;99.90;;;;;;4986926;28;20052;-75
2024/01/24 08:00:07;;;;;;;14.00;2.88;;;9.70;99.90;;;;;;5007684;28;20049;-77
2024/01/24 08:02:33;;;;;;;22.13;2.72;;;9.70;99.90;;;;;;4998761;28;20064;-77
2024/01/24 08:05:00;;;;;;;18.27;3.30;;;9.70;99.90;;;;;;4994905;28;20430;-77
2024/01/24 08:07:26;;;;;;;17.63;2.80;;;9.70;99.90;;;;;;4983380;28;20061;-77
2024/01/24 08:09:52;;;;;;;15.30;1.90;;;9.70;99.90;;;;;;4981271;28;20486;-77
2024/01/24 08:12:20;;;;;;;12.02;2.10;;;9.70;99.90;;;;;;4979723;28;20053;-77
2024/01/24 08:14:46;;;;;;;10.50;2.03;;;9.70;99.90;;;;;;4987628;28;20045;-76
2024/01/24 08:17:14;;;;;;;6.95;2.05;;;9.70;99.90;;;;;;4985934;28;20046;-76
2024/01/24 08:19:39;;;;;;;19.85;2.30;;;9.70;99.90;;;;;;4990448;28;20045;-77
2024/01/24 08:22:05;;;;;;;10.20;2.95;;;9.70;99.90;;;;;;4978297;28;20034;-76
2024/01/24 08:24:31;;;;;;;13.63;3.38;;;9.70;99.90;;;;;;4983294;28;20052;-77
2024/01/24 08:26:58;;;;;;;18.00;2.70;;;9.70;99.90;;;;;;4984353;28;20034;-77
2024/01/24 08:29:27;;;;;;;10.93;1.73;;;9.70;99.90;;;;;;4969415;28;20100;-75
2024/01/24 08:31:53;;;;;;;17.08;2.03;;;9.70;99.90;;;;;;4979616;28;20037;-76
2024/01/24 08:34:18;;;;;;;13.48;2.70;;;9.70;99.90;;;;;;4975469;28;20100;-76
2024/01/24 08:36:44;;;;;;;21.08;3.63;;;9.70;99.90;;;;;;4972174;28;20034;-76
2024/01/24 08:39:10;;;;;;;14.90;2.72;;;9.70;99.90;;;;;;4972937;28;20050;-76
2024/01/24 08:41:36;;;;;;;19.00;2.78;;;9.70;99.90;;;;;;4990813;28;20081;-76
2024/01/24 08:44:04;;;;;;;13.27;2.75;;;9.70;99.90;;;;;;4986632;28;20045;-76
2024/01/24 08:46:30;;;;;;;11.65;2.20;;;9.60;99.90;;;;;;4989121;28;20041;-76
2024/01/24 08:48:56;;;;;;;18.05;2.90;;;9.60;99.90;;;;;;4989482;28;20035;-75
2024/01/24 08:51:24;;;;;;;16.65;2.88;;;9.70;99.90;;;;;;4983055;28;20074;-74
2024/01/24 08:53:50;;;;;;;18.33;2.67;;;9.90;99.90;;;;;;4976197;28;20046;-76
2024/01/24 08:56:16;;;;;;;14.38;3.17;;;10.10;99.90;;;;;;4983712;28;20042;-77
2024/01/24 08:58:42;;;;;;;12.77;2.55;;;10.30;99.90;;;;;;4991109;28;20391;-76
2024/01/24 09:01:08;;;;;;;15.50;2.80;;;10.40;99.90;;;;;;4983376;28;20038;-76
2024/01/24 09:03:34;;;;;;;21.75;3.28;;;10.50;99.90;;;;;;4980109;28;20045;-76
2024/01/24 09:05:59;;;;;;;20.70;3.97;;;10.50;99.90;;;;;;4963062;28;20042;-75
2024/01/24 09:08:25;;;;;;;13.85;3.10;;;10.60;99.90;;;;;;4981668;28;20132;-75
2024/01/24 09:10:52;;;;;;;13.10;2.42;;;10.70;99.90;;;;;;4978822;28;20046;-77
2024/01/24 09:13:21;;;;;;;15.20;1.83;;;10.80;99.90;;;;;;4976821;28;20042;-75
2024/01/24 09:15:47;;;;;;;17.35;3.92;;;10.90;99.90;;;;;;4993612;28;20497;-75
2024/01/24 09:18:14;;;;;;;18.02;2.13;;;11.00;99.90;;;;;;4978205;28;20116;-76
2024/01/24 09:20:40;;;;;;;18.25;2.40;;;11.10;99.90;;;;;;4977888;28;20405;-75
2024/01/24 09:23:05;;;;;;;14.13;2.08;;;10.90;99.90;;;;;;4984538;28;20051;-75
2024/01/24 09:25:31;;;;;;;14.63;3.63;;;11.00;99.90;;;;;;4987077;28;20573;-75
2024/01/24 09:27:57;;;;;;;7.63;2.38;;;11.20;99.90;;;;;;4988769;28;20042;-75
2024/01/24 09:30:23;;;;;;;14.52;2.80;;;11.40;99.90;;;;;;4986597;28;20077;-75
2024/01/24 09:32:51;;;;;;;18.42;3.22;;;11.40;99.90;;;;;;5007138;28;20084;-76
2024/01/24 09:35:17;;;;;;;12.00;3.13;;;11.10;99.90;;;;;;4979505;28;20045;-76
2024/01/24 09:37:44;;;;;;;12.27;2.33;;;11.10;99.90;;;;;;4979974;28;20466;-75
2024/01/24 09:40:12;;;;;;;18.85;3.08;;;11.50;99.90;;;;;;4986004;28;20042;-74
2024/01/24 09:42:43;;;;;;;13.98;2.78;;;11.70;99.90;;;;;;4981741;28;20042;-74
2024/01/24 09:45:10;;;;;;;10.52;1.77;;;11.80;99.90;;;;;;4983752;28;20627;-74
2024/01/24 09:47:37;;;;;;;15.63;2.97;;;11.90;99.90;;;;;;4990631;28;20088;-74
2024/01/24 09:50:04;;;;;;;15.80;3.70;;;12.00;99.90;;;;;;4985454;28;20038;-75
2024/01/24 09:52:34;;;;;;;11.20;2.60;;;12.10;99.90;;;;;;4979167;28;20034;-74
2024/01/24 09:55:05;;;;;;;14.38;2.10;;;12.30;99.90;;;;;;4984178;28;20034;-74
2024/01/24 09:57:32;;;;;;;19.70;2.92;;;12.50;99.90;;;;;;4979397;28;20039;-75
2024/01/24 09:59:58;;;;;;;10.90;2.35;;;12.60;99.90;;;;;;4982426;28;20562;-75
2024/01/24 10:02:26;;;;;;;13.90;3.28;;;12.50;99.90;;;;;;4985541;28;20038;-73
2024/01/24 10:04:52;;;;;;;17.92;2.35;;;12.50;99.90;;;;;;4982391;28;20076;-75
2024/01/24 10:07:19;;;;;;;14.85;3.08;;;12.70;99.90;;;;;;4985523;28;20050;-73
2024/01/24 10:09:46;;;;;;;16.08;3.08;;;12.70;99.90;;;;;;4978537;28;20495;-76
2024/01/24 10:12:12;;;;;;;19.05;3.58;;;12.80;99.90;;;;;;4980605;28;20154;-76
2024/01/24 10:14:40;;;;;;;14.73;2.53;;;12.90;99.90;;;;;;4982657;28;20046;-72
2024/01/24 10:17:13;;;;;;;6.57;1.77;;;13.10;99.90;;;;;;4981916;28;20479;-76
2024/01/24 10:19:39;;;;;;;15.52;3.30;;;13.20;99.90;;;;;;4989656;28;20072;-76
2024/01/24 10:22:05;;;;;;;7.60;2.08;;;13.20;99.90;;;;;;4963098;28;20054;-74
2024/01/24 10:24:33;;;;;;;13.50;2.40;;;13.30;99.90;;;;;;4978276;28;20061;-73
2024/01/24 10:27:00;;;;;;;13.15;2.47;;;13.30;99.90;;;;;;4971598;28;20049;-75
2024/01/24 10:29:25;;;;;;;19.63;1.75;;;13.30;99.90;;;;;;4988727;28;20054;-75
2024/01/24 10:31:56;;;;;;;6.90;1.83;;;13.30;99.90;;;;;;4987909;28;20359;-75
2024/01/24 10:34:26;;;;;;;13.05;3.50;;;13.40;99.90;;;;;;4977337;28;20053;-75
2024/01/24 10:36:52;;;;;;;19.40;2.42;;;13.40;99.90;;;;;;4981594;28;20054;-75
2024/01/24 10:39:21;;;;;;;11.73;2.63;;;13.50;99.90;;;;;;4981909;28;20053;-72
2024/01/24 10:41:53;;;;;;;7.05;2.20;;;13.50;99.90;;;;;;4977537;28;20117;-74
2024/01/24 10:44:24;;;;;;;12.48;1.42;;;13.50;99.90;;;;;;4969921;28;20054;-76
2024/01/24 10:46:51;;;;;;;14.13;1.88;;;13.60;99.90;;;;;;4985235;28;20046;-75
2024/01/24 10:49:17;;;;;;;10.38;2.35;;;13.60;99.90;;;;;;4981611;28;20042;-76
2024/01/24 10:51:46;;;;;;;11.75;2.55;;;13.50;99.90;;;;;;4987648;28;20089;-75
2024/01/24 10:54:17;;;;;;;9.23;1.67;;;13.70;99.90;;;;;;4987049;28;20458;-75
2024/01/24 10:56:48;;;;;;;15.25;2.45;;;13.90;99.90;;;;;;4996246;28;20117;-73
2024/01/24 10:59:15;;;;;;;9.98;1.88;;;13.90;99.90;;;;;;4972429;28;20092;-72
2024/01/24 11:01:41;;;;;;;10.93;1.77;;;13.90;99.90;;;;;;4977299;28;20402;-74
2024/01/24 11:04:08;;;;;;;5.40;1.80;;;13.80;99.90;;;;;;4979646;28;20042;-74
2024/01/24 11:06:41;;;;;;;12.93;1.63;;;13.70;99.90;;;;;;4986635;28;20134;-75
2024/01/24 11:09:23;;;;;;;4.68;1.83;;;13.70;99.90;;;;;;4981132;28;20049;-75
2024/01/24 11:11:53;;;;;;;6.20;1.60;;;13.60;99.90;;;;;;4980960;28;20122;-76
2024/01/24 11:14:33;;;;;;;13.32;2.30;;;13.80;99.90;;;;;;4983712;28;20109;-73
2024/01/24 11:17:00;;;;;;;7.47;1.83;;;13.80;99.90;;;;;;4982301;28;20120;-72
2024/01/24 11:19:28;;;;;;;16.10;2.45;;;13.70;99.90;;;;;;4976531;28;20134;-73
2024/01/24 11:22:00;;;;;;;8.10;2.08;;;13.50;99.90;;;;;;4992021;28;20089;-76
2024/01/24 11:24:43;;;;;;;15.65;1.90;;;13.40;99.90;;;;;;4985456;28;20048;-72
2024/01/24 11:27:35;;;;;;;6.45;1.35;;;13.20;99.90;;;;;;4976774;28;20398;-72
2024/01/24 11:30:17;;;;;;;6.20;2.05;;;13.00;99.90;;;;;;4983528;28;20037;-75
2024/01/24 11:32:54;;;;;;;8.40;1.45;;;13.20;99.90;;;;;;4976321;28;20170;-71
2024/01/24 11:35:37;;;;;;;13.70;2.78;;;13.40;99.90;;;;;;4960531;28;20042;-75
2024/01/24 11:38:36;;;;;;;10.90;2.15;;;13.40;99.90;;;;;;4980316;28;20034;-75
2024/01/24 11:41:10;;;;;;;6.03;1.85;;;13.30;99.90;;;;;;4977771;28;20038;-75
2024/01/24 11:43:36;;;;;;;14.95;3.75;;;13.10;99.90;;;;;;4977653;28;20060;-74
2024/01/24 11:46:03;;;;;;;11.05;2.28;;;12.80;99.90;;;;;;4980261;28;20038;-75
2024/01/24 11:48:31;;;;;;;9.27;1.80;;;12.60;99.90;;;;;;4982446;28;20038;-74
2024/01/24 11:50:58;;;;;;;11.88;2.53;;;12.70;99.90;;;;;;5001079;28;20109;-75
2024/01/24 11:53:25;;;;;;;9.65;2.92;;;12.90;99.90;;;;;;4960115;28;20042;-75
2024/01/24 11:56:26;;;;;;;18.65;2.72;;;12.90;99.90;;;;;;4979913;28;20097;-76
2024/01/24 11:58:52;;;;;;;10.27;2.28;;;12.80;99.90;;;;;;4911298;29;20122;-76
2024/01/24 12:01:18;;;;;;;10.95;2.45;;;12.70;99.90;;;;;;4968312;28;20387;-74
2024/01/24 12:03:48;;;;;;;8.88;1.80;;;12.70;99.90;;;;;;4976609;28;20046;-74
2024/01/24 12:06:14;;;;;;;11.00;2.63;;;12.60;99.90;;;;;;4976284;28;20328;-72
2024/01/24 12:08:39;;;;;;;12.15;1.80;;;12.40;99.90;;;;;;4967587;28;20500;-75
2024/01/24 12:11:11;;;;;;;6.75;1.48;;;12.10;99.90;;;;;;4976011;28;20121;-75
2024/01/24 12:13:37;;;;;;;13.85;1.98;;;12.20;99.90;;;;;;4975824;28;20046;-73
2024/01/24 12:16:04;;;;;;;7.82;2.92;;;12.30;99.90;;;;;;4975409;28;20049;-73
2024/01/24 12:18:31;;;;;;;8.88;1.90;;;12.40;99.90;;;;;;4976662;28;20078;-74
2024/01/24 12:20:58;;;;;;;9.75;2.40;;;12.40;99.90;;;;;;4979608;28;20052;-74
2024/01/24 12:23:24;;;;;;;7.82;1.88;;;12.40;99.90;;;;;;4976981;28;20038;-74
2024/01/24 12:25:50;;;;;;;11.23;1.88;;;12.50;99.90;;;;;;4980581;28;20042;-72
2024/01/24 12:28:17;;;;;;;4.90;2.33;;;12.60;99.90;;;;;;4984946;28;20141;-74
2024/01/24 12:30:44;;;;;;;11.27;1.85;;;12.50;99.90;;;;;;4983403;28;20447;-73
2024/01/24 12:33:13;;;;;;;15.32;2.58;;;12.40;99.90;;;;;;4987855;28;20064;-73
2024/01/24 12:35:45;;;;;;;10.55;2.05;;;12.30;99.90;;;;;;4978685;28;20045;-74
2024/01/24 12:38:11;;;;;;;8.40;1.73;;;12.10;99.90;;;;;;4975233;28;20034;-72
2024/01/24 12:40:37;;;;;;;17.75;2.60;;;12.00;99.90;;;;;;4975294;28;20030;-74
2024/01/24 12:43:03;;;;;;;6.13;1.38;;;11.90;99.90;;;;;;4976422;28;20092;-73